Terminal Aerodrome Forecast
Issued by NWS Milwaukee/Sullivan, WI

Home | Current Version | Previous Version | Text Only | Print | Product List | Glossary On
Versions: 1 2 3 4 5 6 7 8 9 10 11 12 13 14 15 16 17 18 19 20 21 22 23 24 25 26 27 28 29 30 31 32 33 34 35
000
FTUS43 KMKX 200019 AAA
TAFMKE
TAF AMD
KMKE 200019Z 2000/2106 10005KT 6SM BR BKN007
     FM200300 09004KT 5SM BR SCT008
     FM200700 13004KT 1 1/2SM BR SCT008
     FM200900 VRB03KT 1/2SM FG SCT008 BKN012
     FM201000 VRB03KT 1/4SM FG BKN008
     FM201400 15008KT 3SM BR BKN025
     FM201500 15009KT P6SM SCT040
     FM210100 18006KT P6SM SCT080 BKN150=

USA.gov is the U.S. government's official web portal to all federal, state and local government web resources and services.